Aviation Digital Data Service (ADDS)

Output produced by METARs form (1136 UTC 24 May 2022)
found at http://www.aviationweather.gov/metar/data/
 
VTSM 241100Z 30009G20KT 260V340 9999 FEW020 29/24 Q1008 NOSIG
VTSM 241000Z 30012KT 260V340 9999 FEW020 30/23 Q1008 NOSIG
VTSM 240900Z 30013KT 270V340 9999 FEW020 30/24 Q1009 NOSIG
VTSM 240800Z 31015G25KT 270V360 9999 BKN020 34/25 Q1009 NOSIG
VTSM 240700Z 26011KT 210V320 9999 FEW020 33/23 Q1009 NOSIG
VTSM 240600Z 26008KT 210V320 9999 FEW020 33/23 Q1009 NOSIG
VTSM 240500Z 24010KT 180V300 9999 FEW020 32/23 Q1009 NOSIG
VTSM 240400Z 26012KT 180V320 9999 FEW020 31/23 Q1010 NOSIG
VTSM 240300Z VRB02KT 9999 FEW020 32/24 Q1011 NOSIG
VTSM 240200Z VRB01KT 9999 FEW020 31/24 Q1011 NOSIG
VTSM 240100Z 20003KT 9999 FEW020 30/24 Q1010 NOSIG
VTSM 240000Z 00000KT 9999 FEW020 30/24 Q1009 NOSIG
VTSM 231400Z 00000KT CAVOK 30/26 Q1007 NOSIG
VTSM 231300Z 00000KT CAVOK 30/26 Q1006 NOSIG
VTSM 231200Z VRB01KT CAVOK 30/25 Q1006 NOSIG
VTSM 231100Z 30004KT 9999 FEW020 31/25 Q1006 NOSIG
TAF VTSM 241100Z 2412/2512 30008KT 9999 FEW020